UKLR/RWN METAR and TAF weather

Enter ICAO airport designator
Station Type Date Time Source
UKLR METAR 2021/01/22 06:00 UTC NOAA

UKLR 220600Z 18005MPS 150V220 CAVOK 02/M01 Q1007 NOSIG


Station Type Date Time Source
UKLR Decoded METAR 2021/01/22 06:00 UTC NOAA

Rivne, Ukraine (UKLR) 50-35N 026-08E
Jan 22, 2021 - 01:00 AM EST / 2021.01.22 0600 UTC
Wind: from the S (180 degrees) at 11 MPH (10 KT) (direction variable):0
Visibility: greater than 7 mile(s):0
Temperature: 35 F (2 C)
Windchill: 26 F (-3 C):1
Dew Point: 30 F (-1 C)
Relative Humidity: 80%
Pressure (altimeter): 29.74 in. Hg (1007 hPa)
ob: UKLR 220600Z 18005MPS 150V220 CAVOK 02/M01 Q1007 NOSIG
cycle: 6

Station Type Date Time Source
UKLR TAF 2019/08/16 12:15 UTC NOAA

TAF TAF UKLR 161105Z 1612/1821 35003MPS 9999 BKN020 SCT023CB

Example: see airport list